Time;durP1;ratioP1;P1;durP2;ratioP2;P2;SDS_P1;SDS_P2;PMS_P1;PMS_P2;Temp;Humidity;BMP_temperature;BMP_pressure;BME280_temperature;BME280_humidity;BME280_pressure;Samples;Min_cycle;Max_cycle;Signal;HPM_P1;HPM_P2
2021/01/06 00:00:48;;;;;;;;;;;;;;;-0.48;97.89;99333.08;1762012;79;22092;-66
2021/01/06 00:03:20;;;;;;;5.08;3.58;;;;;;;-0.47;97.85;99333.52;1751221;81;20594;-66
2021/01/06 00:05:53;;;;;;;8.10;3.72;;;;;;;-0.45;97.88;99326.64;1757553;80;21133;-66
2021/01/06 00:08:20;;;;;;;5.45;4.45;;;;;;;-0.46;97.85;99330.08;1746838;80;21158;-66
2021/01/06 00:10:54;;;;;;;5.72;3.50;;;;;;;-0.46;97.84;99322.38;1744466;81;26192;-66
2021/01/06 00:13:23;;;;;;;7.55;4.67;;;;;;;-0.46;97.83;99325.80;1754489;80;21258;-66
2021/01/06 00:15:50;;;;;;;6.60;4.28;;;;;;;-0.46;97.83;99324.95;1749663;80;21148;-66
2021/01/06 00:18:18;;;;;;;;;;;;;;;-0.44;97.83;99327.52;1753509;81;21527;-66
2021/01/06 00:20:45;;;;;;;5.25;4.22;;;;;;;-0.46;97.80;99327.52;1746157;81;21214;-66
2021/01/06 00:23:13;;;;;;;9.68;5.22;;;;;;;-0.46;97.82;99328.80;1749377;81;21072;-67
2021/01/06 00:25:43;;;;;;;;;;;;;;;-0.46;97.84;99328.80;1760954;81;21965;-65
2021/01/06 00:28:14;;;;;;;6.42;3.98;;;;;;;-0.46;97.84;99325.80;1762473;81;20380;-65
2021/01/06 00:30:45;;;;;;;6.25;4.15;;;;;;;-0.46;97.86;99327.52;1753003;81;21263;-65
2021/01/06 00:33:17;;;;;;;7.20;4.40;;;;;;;-0.45;97.89;99318.94;1759220;79;21220;-65
2021/01/06 00:35:55;;;;;;;5.87;4.40;;;;;;;-0.45;97.89;99317.66;1754509;81;21230;-66
2021/01/06 00:38:21;;;;;;;;;;;;;;;-0.45;97.90;99324.07;1755682;81;21238;-65
2021/01/06 00:40:49;;;;;;;7.80;5.28;;;;;;;-0.44;97.91;99303.98;1752097;81;20569;-65
2021/01/06 00:43:18;;;;;;;7.75;5.05;;;;;;;-0.45;97.91;99313.81;1758312;81;21030;-65
2021/01/06 00:45:45;;;;;;;7.85;5.15;;;;;;;-0.45;97.90;99318.94;1761451;81;22727;-65
2021/01/06 00:48:13;;;;;;;7.75;5.20;;;;;;;-0.46;97.88;99318.53;1752985;81;21582;-65
2021/01/06 00:50:41;;;;;;;7.95;5.53;;;;;;;-0.44;97.92;99323.23;1749936;81;21183;-65
2021/01/06 00:53:22;;;;;;;8.68;5.35;;;;;;;-0.44;97.93;99321.95;1750545;79;21199;-65
2021/01/06 00:55:54;;;;;;;7.90;5.50;;;;;;;-0.43;97.91;99316.38;1756307;80;21227;-64
2021/01/06 00:58:23;;;;;;;8.40;6.12;;;;;;;-0.44;97.90;99312.97;1767558;80;21196;-63
2021/01/06 01:00:50;;;;;;;7.92;5.40;;;;;;;-0.42;97.92;99313.81;1756427;80;21179;-64
2021/01/06 01:03:17;;;;;;;8.83;5.58;;;;;;;-0.41;97.89;99312.09;1769344;80;21179;-64
2021/01/06 01:05:46;;;;;;;9.18;5.37;;;;;;;-0.41;97.91;99317.22;1762179;80;21207;-64
2021/01/06 01:08:14;;;;;;;8.93;6.03;;;;;;;-0.41;97.91;99312.94;1757670;80;21053;-64
2021/01/06 01:10:43;;;;;;;;;;;;;;;-0.42;97.92;99313.81;1765995;80;21199;-64
2021/01/06 01:13:19;;;;;;;8.90;5.62;;;;;;;-0.41;97.89;99309.52;1753454;80;20196;-64
2021/01/06 01:15:51;;;;;;;7.80;5.75;;;;;;;-0.42;97.93;99306.12;1768629;80;21239;-63
2021/01/06 01:18:23;;;;;;;7.12;5.03;;;;;;;-0.41;97.96;99300.11;1766135;80;21572;-64
2021/01/06 01:20:57;;;;;;;8.93;5.65;;;;;;;-0.40;97.94;99304.36;1754023;80;21614;-65
2021/01/06 01:23:27;;;;;;;8.38;4.75;;;;;;;-0.38;97.94;99301.36;1762829;80;22564;-66
2021/01/06 01:25:56;;;;;;;7.90;5.62;;;;;;;-0.38;97.96;99292.38;1764517;80;21029;-66
2021/01/06 01:28:26;;;;;;;8.25;5.35;;;;;;;-0.37;97.98;99286.38;1765712;80;21247;-65
2021/01/06 01:30:54;;;;;;;8.25;5.62;;;;;;;-0.36;97.95;99298.36;1757973;80;21080;-65
2021/01/06 01:33:25;;;;;;;7.10;5.08;;;;;;;-0.36;97.94;99290.66;1765597;80;21208;-64
2021/01/06 01:35:52;;;;;;;8.03;5.58;;;;;;;-0.36;97.95;99286.81;1756445;80;21214;-65
2021/01/06 01:38:25;;;;;;;;;;;;;;;-0.35;97.95;99282.09;1770457;80;21191;-65
2021/01/06 01:41:01;;;;;;;7.62;5.08;;;;;;;-0.33;97.97;99284.66;1747235;81;20298;-65
2021/01/06 01:43:37;;;;;;;8.53;5.53;;;;;;;-0.29;97.98;99286.31;1827874;76;22737;-66
2021/01/06 01:46:09;;;;;;;8.35;5.65;;;;;;;-0.33;97.99;99282.93;1792827;77;21063;-67
2021/01/06 01:48:49;;;;;;;9.80;6.05;;;;;;;-0.32;97.97;99282.05;1804993;78;22168;-67
2021/01/06 01:51:43;;;;;;;8.98;5.80;;;;;;;-0.32;97.97;99291.47;1811503;78;20993;-67
2021/01/06 01:54:15;;;;;;;11.45;6.65;;;;;;;-0.31;97.93;99290.19;1807722;78;21025;-68
2021/01/06 01:56:56;;;;;;;10.03;6.67;;;;;;;-0.32;97.93;99298.73;1789864;78;22205;-66
2021/01/06 01:59:34;;;;;;;10.78;6.87;;;;;;;-0.33;97.94;99288.50;1783692;78;21586;-66
2021/01/06 02:02:15;;;;;;;9.13;5.63;;;;;;;-0.29;97.93;99289.72;1784316;77;28729;-66
2021/01/06 02:04:53;;;;;;;11.90;6.62;;;;;;;-0.27;97.88;99287.99;1770875;80;21028;-64
2021/01/06 02:07:28;;;;;;;9.43;6.53;;;;;;;-0.24;97.77;99289.24;1768398;80;21707;-65
2021/01/06 02:10:16;;;;;;;8.90;6.45;;;;;;;-0.23;97.79;99289.64;1766037;79;21072;-64
2021/01/06 02:12:57;;;;;;;10.38;6.05;;;;;;;-0.26;97.81;99287.11;1754824;80;21032;-65
2021/01/06 02:15:35;;;;;;;10.05;6.75;;;;;;;-0.25;97.84;99293.97;1771826;79;21001;-64
2021/01/06 02:18:05;;;;;;;10.65;6.30;;;;;;;-0.25;97.83;99289.27;1772433;80;21060;-64
2021/01/06 02:20:34;;;;;;;10.10;6.92;;;;;;;-0.26;97.88;99290.97;1756467;80;21203;-64
2021/01/06 02:23:02;;;;;;;11.12;6.12;;;;;;;-0.26;97.91;99287.11;1767777;80;21613;-65
2021/01/06 02:25:32;;;;;;;7.22;5.58;;;;;;;-0.25;97.93;99282.86;1762531;80;21028;-65
2021/01/06 02:28:01;;;;;;;12.65;6.65;;;;;;;-0.26;97.94;99278.14;1772946;80;21202;-64
2021/01/06 02:30:29;;;;;;;11.05;7.08;;;;;;;-0.26;97.95;99281.98;1769019;80;21155;-64
2021/01/06 02:32:57;;;;;;;10.78;7.22;;;;;;;-0.25;97.95;99281.14;1774184;80;21689;-64
2021/01/06 02:35:24;;;;;;;10.00;7.55;;;;;;;-0.26;97.94;99280.70;1764750;80;21223;-64
2021/01/06 02:37:52;;;;;;;10.25;6.78;;;;;;;-0.23;97.95;99279.38;1765968;80;21020;-65
2021/01/06 02:40:19;;;;;;;9.90;6.85;;;;;;;-0.25;97.93;99277.29;1764806;80;21064;-64
2021/01/06 02:42:49;;;;;;;10.18;7.08;;;;;;;-0.24;97.96;99275.13;1762238;79;21231;-64
2021/01/06 02:45:17;;;;;;;14.28;6.90;;;;;;;-0.23;97.96;99274.25;1754398;78;21627;-63
2021/01/06 02:47:48;;;;;;;12.25;7.35;;;;;;;-0.21;97.98;99274.69;1768066;80;21210;-64
2021/01/06 02:50:19;;;;;;;11.48;7.12;;;;;;;-0.21;98.01;99265.70;1778562;80;21028;-63
2021/01/06 02:52:56;;;;;;;12.78;7.92;;;;;;;-0.22;97.98;99266.14;1767917;80;21139;-64
2021/01/06 02:55:25;;;;;;;12.05;7.78;;;;;;;-0.21;98.02;99274.25;1771821;80;21032;-64
2021/01/06 02:57:54;;;;;;;13.45;8.28;;;;;;;-0.21;97.98;99269.55;1770093;80;21206;-64
2021/01/06 03:00:26;;;;;;;13.30;9.30;;;;;;;-0.23;98.00;99260.14;1769678;80;21187;-63
2021/01/06 03:02:54;;;;;;;14.60;9.05;;;;;;;-0.23;98.01;99266.55;1780465;80;21589;-63
2021/01/06 03:05:32;;;;;;;11.25;8.35;;;;;;;-0.23;98.03;99269.13;1770546;78;21126;-64
2021/01/06 03:08:00;;;;;;;14.90;9.18;;;;;;;-0.23;98.01;99266.55;1772306;80;21099;-64
2021/01/06 03:10:27;;;;;;;15.15;8.00;;;;;;;-0.34;97.95;99244.02;1772151;80;24455;-63
2021/01/06 03:12:57;;;;;;;12.65;9.00;;;;;;;-0.34;97.95;99244.02;1784540;78;21012;-63
2021/01/06 03:15:27;;;;;;;14.35;9.05;;;;;;;-0.26;97.95;99254.20;1781012;79;20980;-63
2021/01/06 03:18:00;;;;;;;14.83;9.33;;;;;;;-0.28;97.93;99260.66;1774136;80;21131;-64
2021/01/06 03:20:38;;;;;;;15.23;9.63;;;;;;;-0.30;97.96;99261.09;1775417;80;21617;-63
2021/01/06 03:23:11;;;;;;;16.85;8.88;;;;;;;-0.28;97.97;99257.20;1769721;80;21235;-63
2021/01/06 03:25:38;;;;;;;15.45;8.75;;;;;;;-0.29;98.00;99257.65;1751832;80;21179;-63
2021/01/06 03:28:05;;;;;;;13.62;9.25;;;;;;;-0.31;97.97;99255.55;1781387;78;21052;-63
2021/01/06 03:30:34;;;;;;;12.85;9.58;;;;;;;-0.31;97.98;99263.25;1770094;80;21150;-63
2021/01/06 03:33:18;;;;;;;15.95;9.65;;;;;;;-0.32;97.94;99258.97;1787112;78;21166;-63
2021/01/06 03:35:55;;;;;;;14.78;9.73;;;;;;;-0.36;97.90;99254.75;1772526;78;21848;-63
2021/01/06 03:38:37;;;;;;;20.10;10.50;;;;;;;-0.40;97.89;99258.19;1773771;80;22874;-63
2021/01/06 03:41:07;;;;;;;17.92;11.25;;;;;;;-0.42;97.90;99255.22;1765279;78;21024;-63
2021/01/06 03:43:44;;;;;;;17.00;10.93;;;;;;;-0.46;97.91;99253.97;1776629;80;21008;-63
2021/01/06 03:46:19;;;;;;;16.40;11.95;;;;;;;-0.47;97.88;99247.59;1786603;78;21024;-63
2021/01/06 03:49:09;;;;;;;17.30;12.18;;;;;;;-0.49;97.98;99250.16;1771437;80;22599;-63
2021/01/06 03:51:44;;;;;;;19.07;12.53;;;;;;;-0.48;98.03;99251.88;1781943;80;21649;-63
2021/01/06 03:54:31;;;;;;;18.60;12.50;;;;;;;-0.46;98.07;99248.00;1774911;78;21020;-63
2021/01/06 03:57:00;;;;;;;19.07;11.65;;;;;;;-0.44;98.05;99255.70;1775895;78;21020;-63
2021/01/06 03:59:32;;;;;;;18.00;12.65;;;;;;;-0.43;98.06;99249.25;1760424;80;21216;-63
2021/01/06 04:02:21;;;;;;;14.68;10.20;;;;;;;-0.42;98.10;99244.55;1772945;79;21682;-64
2021/01/06 04:05:08;;;;;;;16.37;10.58;;;;;;;-0.42;98.07;99243.27;1764614;80;21018;-63
2021/01/06 04:07:55;;;;;;;13.83;10.28;;;;;;;-0.41;98.08;99245.41;1761303;80;25122;-63
2021/01/06 04:10:27;;;;;;;18.73;9.90;;;;;;;-0.40;98.08;99249.66;1760102;79;21756;-63
2021/01/06 04:12:54;;;;;;;14.93;10.25;;;;;;;-0.40;98.07;99253.06;1760711;80;21021;-63
2021/01/06 04:15:22;;;;;;;14.85;9.98;;;;;;;-0.40;98.06;99256.91;1766731;78;21200;-63
2021/01/06 04:17:53;;;;;;;16.90;11.08;;;;;;;-0.39;98.04;99251.34;1766700;78;21040;-63
2021/01/06 04:20:33;;;;;;;20.23;10.95;;;;;;;-0.40;98.06;99247.93;1761448;79;21028;-63
2021/01/06 04:23:08;;;;;;;20.50;9.75;;;;;;;-0.40;98.05;99254.34;1762920;79;21341;-63
2021/01/06 04:25:42;;;;;;;16.60;9.53;;;;;;;-0.39;98.04;99253.50;1761508;80;21590;-63
2021/01/06 04:28:23;;;;;;;14.80;9.60;;;;;;;-0.40;98.01;99249.66;1754717;80;21151;-63
2021/01/06 04:31:05;;;;;;;17.50;9.50;;;;;;;-0.43;98.02;99246.69;1756579;80;21233;-64
2021/01/06 04:33:46;;;;;;;16.15;10.25;;;;;;;-0.45;97.93;99249.69;1763469;80;21662;-64
2021/01/06 04:36:19;;;;;;;18.65;10.48;;;;;;;-0.48;98.03;99245.87;1772529;80;21020;-64
2021/01/06 04:38:49;;;;;;;14.23;9.08;;;;;;;-0.50;98.15;99249.76;1761537;80;21214;-65
2021/01/06 04:41:37;;;;;;;19.57;10.93;;;;;;;-0.50;98.19;99248.91;1776719;79;22183;-64
2021/01/06 04:44:28;;;;;;;12.53;6.67;;;;;;;-0.51;98.17;99244.63;1764288;80;21791;-64
2021/01/06 04:47:23;;;;;;;14.78;9.23;;;;;;;-0.54;98.00;99244.66;1758124;80;21126;-64
2021/01/06 04:50:39;;;;;;;15.60;10.95;;;;;;;-0.60;97.95;99244.73;1778587;78;20994;-64
2021/01/06 04:53:17;;;;;;;17.32;9.75;;;;;;;-0.62;97.99;99249.02;1771071;80;21020;-64
2021/01/06 04:56:16;;;;;;;19.27;12.73;;;;;;;-0.65;98.01;99242.20;1695162;83;21215;-64
2021/01/06 04:59:04;;;;;;;16.97;10.68;;;;;;;-0.66;98.10;99235.82;1691854;83;21063;-64
2021/01/06 05:01:52;;;;;;;18.95;12.53;;;;;;;-0.68;98.12;99234.54;1691975;83;21285;-64
2021/01/06 05:04:51;;;;;;;15.80;11.53;;;;;;;-0.64;98.19;99232.78;1821396;77;27787;-62
2021/01/06 05:07:56;;;;;;;17.52;12.65;;;;;;;-0.63;98.17;99229.38;1799334;77;22357;-62
2021/01/06 05:10:38;;;;;;;16.23;12.40;;;;;;;-0.60;98.06;99230.63;1802056;77;22569;-62
2021/01/06 05:16:15;;;;;;;20.50;11.97;;;;;;;-0.60;98.14;99228.06;1664950;84;21080;-63
2021/01/06 05:18:43;;;;;;;13.68;9.03;;;;;;;-0.59;98.19;99231.03;1673049;84;21049;-63
2021/01/06 05:21:16;;;;;;;16.40;11.68;;;;;;;-0.59;98.19;99225.91;1671629;84;21685;-62
2021/01/06 05:23:45;;;;;;;21.50;12.53;;;;;;;-0.58;98.26;99225.06;1649361;85;21867;-63
2021/01/06 05:26:12;;;;;;;18.87;11.70;;;;;;;-0.55;98.28;99227.59;1670199;84;21033;-62
2021/01/06 05:28:40;;;;;;;17.55;11.18;;;;;;;-0.54;98.30;99225.43;1666447;84;21012;-62
2021/01/06 05:31:07;;;;;;;18.77;10.08;;;;;;;-0.51;98.27;99230.52;1675678;84;21602;-62
2021/01/06 05:33:47;;;;;;;15.58;9.93;;;;;;;-0.50;98.24;99225.83;1666683;83;21159;-63
2021/01/06 05:36:21;;;;;;;13.88;9.10;;;;;;;-0.49;98.27;99222.39;1669190;83;21606;-62
2021/01/06 05:38:48;;;;;;;18.35;10.95;;;;;;;-0.48;98.23;99231.77;1669750;83;21194;-63
2021/01/06 05:41:15;;;;;;;16.42;11.03;;;;;;;-0.47;98.25;99228.36;1667532;83;21143;-62
2021/01/06 05:43:47;;;;;;;19.27;11.35;;;;;;;-0.46;98.25;99227.48;1670734;83;21214;-63
2021/01/06 05:46:28;;;;;;;21.45;10.60;;;;;;;-0.47;98.21;99227.08;1656937;84;21087;-62
2021/01/06 05:49:02;;;;;;;19.12;10.65;;;;;;;-0.47;98.14;99226.64;1673338;83;21893;-63
2021/01/06 05:51:41;;;;;;;20.62;10.85;;;;;;;-0.50;98.07;99241.22;1638549;85;21251;-63
2021/01/06 05:54:22;;;;;;;22.50;12.75;;;;;;;-0.52;98.04;99232.69;1667317;84;21245;-62
2021/01/06 05:57:27;;;;;;;20.60;12.63;;;;;;;-0.54;98.10;99239.53;1639776;85;21605;-62
2021/01/06 06:00:20;;;;;;;18.82;11.12;;;;;;;-0.55;98.16;99237.84;1665002;83;21617;-62
2021/01/06 06:03:04;;;;;;;17.67;10.32;;;;;;;-0.56;98.12;99233.16;1675656;83;22191;-63
2021/01/06 06:05:51;;;;;;;19.15;12.47;;;;;;;-0.58;98.07;99238.72;1673170;83;21720;-63
2021/01/06 06:08:41;;;;;;;19.42;12.35;;;;;;;-0.58;98.15;99236.59;1586404;88;21291;-63
2021/01/06 06:11:52;;;;;;;20.15;12.03;;;;;;;-0.58;98.20;99235.31;1591914;88;22266;-63
2021/01/06 06:14:47;;;;;;;19.95;11.57;;;;;;;-0.56;98.24;99238.69;1585274;88;21879;-63
2021/01/06 06:17:53;;;;;;;24.15;13.35;;;;;;;-0.56;98.18;99232.28;1586354;88;21426;-63
2021/01/06 06:21:03;;;;;;;20.27;12.07;;;;;;;-0.50;98.23;99230.96;1840217;76;22732;-62
2021/01/06 06:24:16;;;;;;;18.55;10.32;;;;;;;-0.55;98.18;99235.28;1799327;78;21059;-63
2021/01/06 06:26:51;;;;;;;22.50;12.40;;;;;;;-0.56;98.17;99234.84;1788580;77;21651;-63
2021/01/06 06:30:09;;;;;;;19.23;12.10;;;;;;;-0.57;98.14;99231.87;1809965;78;21064;-62
2021/01/06 06:32:38;;;;;;;24.75;14.33;;;;;;;-0.58;98.13;99235.31;1791130;77;20980;-62
2021/01/06 06:35:33;;;;;;;21.35;14.20;;;;;;;-0.58;98.17;99232.75;1797832;78;21059;-62
2021/01/06 06:38:04;;;;;;;22.00;13.58;;;;;;;-0.58;98.15;99235.31;1747103;81;21375;-63
2021/01/06 06:40:52;;;;;;;21.62;13.20;;;;;;;-0.57;98.10;99234.44;1764886;78;21271;-62
2021/01/06 06:43:42;;;;;;;24.60;14.65;;;;;;;-0.58;98.08;99239.16;1639577;86;28395;-62
2021/01/06 06:46:46;;;;;;;20.52;12.15;;;;;;;-0.52;98.12;99232.69;1872779;75;22968;-63
2021/01/06 06:49:37;;;;;;;19.80;12.05;;;;;;;-0.56;98.06;99238.69;1835417;77;21008;-63
2021/01/06 06:52:17;;;;;;;22.62;12.73;;;;;;;-0.57;98.03;99239.56;1841035;77;22111;-63
2021/01/06 06:55:27;;;;;;;17.20;11.18;;;;;;;-0.57;98.07;99239.56;1852369;76;20973;-63
2021/01/06 06:58:41;;;;;;;21.87;13.22;;;;;;;-0.58;98.05;99245.58;1849998;76;21000;-62
2021/01/06 07:01:13;;;;;;;22.00;12.35;;;;;;;-0.59;98.11;99246.41;1765117;80;21036;-62
2021/01/06 07:03:45;;;;;;;22.37;12.15;;;;;;;-0.62;98.06;99241.32;1769730;80;21048;-63
2021/01/06 07:06:13;;;;;;;24.10;13.88;;;;;;;-0.62;98.10;99241.32;1770503;79;21202;-64
2021/01/06 07:08:51;;;;;;;23.32;12.93;;;;;;;-0.62;98.11;99240.04;1766494;79;21656;-63
2021/01/06 07:11:41;;;;;;;21.90;12.82;;;;;;;-0.62;98.10;99233.63;1772831;80;21053;-63
2021/01/06 07:14:50;;;;;;;25.43;15.28;;;;;;;-0.62;98.11;99231.06;1764903;80;20978;-63
2021/01/06 07:17:37;;;;;;;18.00;10.15;;;;;;;-0.63;98.11;99242.20;1774348;79;21174;-63
2021/01/06 07:20:21;;;;;;;19.92;11.43;;;;;;;-0.64;98.06;99244.33;1772941;80;21540;-63
2021/01/06 07:23:01;;;;;;;18.48;11.57;;;;;;;-0.59;98.16;99240.85;1836076;76;22497;-62
2021/01/06 07:25:33;;;;;;;27.52;15.50;;;;;;;-0.62;98.18;99240.04;1812186;77;21070;-63
2021/01/06 07:28:12;;;;;;;20.85;12.03;;;;;;;-0.62;98.23;99236.20;1807673;77;22103;-63
2021/01/06 07:30:38;;;;;;;25.75;14.70;;;;;;;-0.59;98.20;99236.16;1805980;78;21573;-63
2021/01/06 07:33:34;;;;;;;22.00;12.78;;;;;;;-0.53;98.16;99236.13;1823768;77;22523;-62
2021/01/06 07:36:13;;;;;;;24.82;12.28;;;;;;;-0.56;98.14;99239.97;1805186;79;21036;-63
2021/01/06 07:38:41;;;;;;;24.18;14.80;;;;;;;-0.55;98.13;99242.98;1775781;79;22166;-63
2021/01/06 07:41:10;;;;;;;28.62;15.85;;;;;;;-0.55;98.07;99245.54;1793833;79;21005;-63
2021/01/06 07:43:44;;;;;;;25.82;14.68;;;;;;;-0.55;98.11;99248.11;1793371;77;21625;-64
2021/01/06 07:46:17;;;;;;;26.42;14.95;;;;;;;-0.53;98.07;99248.95;1796697;77;20977;-63
2021/01/06 07:48:59;;;;;;;26.73;15.45;;;;;;;-0.53;98.10;99257.48;1803186;79;20949;-64
2021/01/06 07:51:34;;;;;;;22.42;13.78;;;;;;;-0.51;98.06;99249.76;1797586;79;21254;-64
2021/01/06 07:54:24;;;;;;;22.95;13.80;;;;;;;-0.52;97.89;99251.92;1795657;77;21013;-64
2021/01/06 07:57:14;;;;;;;18.90;12.07;;;;;;;-0.45;98.15;99254.82;1800612;79;21005;-63
2021/01/06 07:59:54;;;;;;;24.20;13.98;;;;;;;-0.40;98.02;99250.50;1792859;77;21204;-63
2021/01/06 08:02:41;;;;;;;27.77;17.70;;;;;;;-0.44;97.88;99256.54;1808254;77;21069;-62
2021/01/06 08:05:27;;;;;;;25.25;15.13;;;;;;;-0.44;97.83;99253.97;1804067;77;21397;-63
2021/01/06 08:08:11;;;;;;;19.15;11.22;;;;;;;-0.43;97.85;99260.80;1738178;81;21707;-62
2021/01/06 08:10:49;;;;;;;18.05;11.57;;;;;;;-0.41;97.79;99256.51;1865346;75;22584;-63
2021/01/06 08:13:33;;;;;;;18.98;12.80;;;;;;;-0.47;97.78;99265.11;1855958;77;20964;-63
2021/01/06 08:16:30;;;;;;;37.50;16.50;;;;;;;-0.48;97.75;99259.98;1846987;76;22166;-63
2021/01/06 08:19:23;;;;;;;35.43;17.90;;;;;;;-0.49;97.88;99258.30;1849857;77;21064;-63
2021/01/06 08:22:08;;;;;;;23.42;14.80;;;;;;;-0.46;97.88;99253.13;1844053;76;21167;-63
2021/01/06 08:24:54;;;;;;;27.55;15.32;;;;;;;-0.41;97.83;99250.53;1863703;75;20961;-64
2021/01/06 08:27:37;;;;;;;23.05;15.35;;;;;;;-0.50;97.67;99251.48;1771727;79;21084;-63
2021/01/06 08:30:26;;;;;;;22.60;14.05;;;;;;;-0.52;97.76;99257.05;1775280;78;21211;-63
2021/01/06 08:33:11;;;;;;;24.00;13.72;;;;;;;-0.50;97.92;99254.05;1771696;78;21040;-63
2021/01/06 08:35:45;;;;;;;29.52;15.88;;;;;;;-0.48;97.82;99259.98;1774294;78;21068;-63
2021/01/06 08:38:33;;;;;;;31.12;17.42;;;;;;;-0.48;97.81;99265.11;1766144;78;21021;-62
2021/01/06 08:41:22;;;;;;;26.90;16.12;;;;;;;-0.48;97.81;99253.57;1778500;78;21627;-63
2021/01/06 08:43:51;;;;;;;24.92;15.28;;;;;;;-0.47;97.86;99249.72;1773275;78;22152;-62
2021/01/06 08:46:25;;;;;;;28.40;16.70;;;;;;;-0.45;97.85;99252.25;1772746;78;21072;-63
2021/01/06 08:48:53;;;;;;;22.22;14.20;;;;;;;-0.42;97.83;99250.97;1777021;78;20993;-63
2021/01/06 08:51:37;;;;;;;22.52;15.40;;;;;;;-0.42;97.63;99254.81;1795885;77;21689;-64
2021/01/06 08:54:31;;;;;;;26.55;14.20;;;;;;;-0.40;97.73;99255.63;1792536;78;21016;-63
2021/01/06 08:57:28;;;;;;;24.02;14.87;;;;;;;-0.36;97.64;99254.75;1797439;78;22681;-63
2021/01/06 08:59:58;;;;;;;27.20;14.98;;;;;;;-0.37;97.57;99250.46;1798786;77;21276;-63
2021/01/06 09:02:35;;;;;;;29.48;16.80;;;;;;;-0.37;97.60;99247.90;1796065;78;20993;-63
2021/01/06 09:05:03;;;;;;;25.75;15.30;;;;;;;-0.36;97.53;99259.03;1750830;80;21585;-63
2021/01/06 09:07:35;;;;;;;19.62;13.38;;;;;;;-0.38;97.46;99252.63;1770191;78;21226;-63
2021/01/06 09:10:20;;;;;;;24.10;14.10;;;;;;;-0.37;97.57;99255.59;1794044;77;21198;-63
2021/01/06 09:13:06;;;;;;;27.67;15.50;;;;;;;-0.33;97.59;99248.30;1837755;77;22390;-63
2021/01/06 09:18:39;;;;;;;21.90;15.00;;;;;;;-0.31;97.64;99237.59;1820008;77;23402;-63
2021/01/06 09:21:29;;;;;;;24.27;14.25;;;;;;;-0.37;97.48;99249.62;1761922;79;21021;-64
2021/01/06 09:24:02;;;;;;;24.47;13.62;;;;;;;-0.35;97.61;99243.61;1800191;79;22159;-63
2021/01/06 09:26:38;;;;;;;23.50;13.48;;;;;;;-0.31;97.51;99250.42;1838716;77;22515;-63
2021/01/06 09:29:13;;;;;;;21.48;14.95;;;;;;;-0.36;97.43;99248.77;1805232;77;21592;-62
2021/01/06 09:31:47;;;;;;;24.77;15.63;;;;;;;-0.38;97.40;99251.34;1809680;78;21149;-63
2021/01/06 09:34:18;;;;;;;27.20;16.80;;;;;;;-0.38;97.53;99256.47;1812374;77;21028;-64
2021/01/06 09:36:49;;;;;;;23.80;14.30;;;;;;;-0.33;97.63;99254.71;1813182;78;21001;-63
2021/01/06 09:39:21;;;;;;;21.97;14.28;;;;;;;-0.30;97.59;99255.95;1806072;77;21570;-63
2021/01/06 09:41:54;;;;;;;25.88;15.72;;;;;;;-0.28;97.56;99256.80;1815361;78;21044;-63
2021/01/06 09:44:21;;;;;;;26.62;14.87;;;;;;;-0.31;97.41;99256.84;1803662;78;22538;-63
2021/01/06 09:47:08;;;;;;;24.12;13.43;;;;;;;-0.31;97.42;99246.98;1804316;78;21051;-63
2021/01/06 09:49:40;;;;;;;27.62;15.95;;;;;;;-0.32;97.46;99243.58;1800592;78;21174;-63
2021/01/06 09:52:24;;;;;;;24.37;14.03;;;;;;;-0.29;97.47;99246.10;1811539;77;21013;-64
2021/01/06 09:54:54;;;;;;;26.80;15.80;;;;;;;-0.28;97.43;99252.08;1801643;78;21190;-63
2021/01/06 09:57:23;;;;;;;21.95;14.10;;;;;;;-0.28;97.46;99254.23;1816377;77;21185;-64
2021/01/06 09:59:54;;;;;;;24.55;15.28;;;;;;;-0.26;97.39;99250.36;1809126;77;21049;-64
2021/01/06 10:02:32;;;;;;;22.93;12.15;;;;;;;-0.22;97.41;99252.03;1788031;78;21091;-63
2021/01/06 10:05:13;;;;;;;24.47;15.43;;;;;;;-0.23;97.36;99235.77;1752285;81;21702;-63
2021/01/06 10:08:01;;;;;;;25.00;15.75;;;;;;;-0.22;97.39;99244.34;1654207;84;21250;-64
2021/01/06 10:10:39;;;;;;;20.67;14.80;;;;;;;-0.13;97.44;99249.80;1816426;76;27972;-63
2021/01/06 10:13:13;;;;;;;33.20;19.35;;;;;;;-0.09;97.45;99251.00;1797776;77;21629;-63
2021/01/06 10:16:10;;;;;;;22.60;14.60;;;;;;;-0.02;97.32;99244.10;1773286;79;22971;-64
2021/01/06 10:19:01;;;;;;;21.48;13.72;;;;;;;-0.02;97.12;99238.97;1801738;79;21613;-63
2021/01/06 10:21:57;;;;;;;21.77;14.80;;;;;;;-0.02;97.13;99235.12;1787074;79;21043;-63
2021/01/06 10:24:53;;;;;;;17.60;13.03;;;;;;;-0.03;97.15;99235.97;1813303;77;21052;-63
2021/01/06 10:27:42;;;;;;;26.82;15.05;;;;;;;-0.03;97.22;99233.41;1779585;79;20992;-63
2021/01/06 10:30:17;;;;;;;21.15;14.90;;;;;;;-0.04;97.23;99227.86;1807184;79;21194;-63
2021/01/06 10:32:52;;;;;;;18.65;13.10;;;;;;;-0.03;97.30;99224.42;1808693;78;21646;-63
2021/01/06 10:35:56;;;;;;;21.48;12.80;;;;;;;0.00;97.36;99219.27;1778619;79;21126;-63
2021/01/06 10:38:43;;;;;;;27.20;15.03;;;;;;;0.00;97.32;99220.56;1705036;83;22349;-64
2021/01/06 10:41:23;;;;;;;;;;;;;;;0.02;97.32;99220.08;1703746;82;21325;-63
2021/01/06 10:44:13;;;;;;;21.35;12.45;;;;;;;0.05;97.26;99220.04;1707201;82;21206;-64
2021/01/06 10:46:52;;;;;;;20.45;13.90;;;;;;;0.08;97.21;99220.00;1880313;75;22308;-64
2021/01/06 10:49:34;;;;;;;24.27;14.55;;;;;;;0.05;97.32;99218.75;1848594;77;20981;-64
2021/01/06 10:52:16;;;;;;;22.40;14.63;;;;;;;0.03;97.10;99217.95;1845338;77;21711;-64
2021/01/06 10:55:09;;;;;;;21.77;14.58;;;;;;;0.04;97.22;99223.92;1839162;77;21336;-64
2021/01/06 10:58:03;;;;;;;26.37;16.40;;;;;;;0.07;97.39;99227.30;1779532;79;21170;-64
2021/01/06 11:00:51;;;;;;;21.50;13.80;;;;;;;0.08;97.17;99223.84;1781282;79;21211;-64
2021/01/06 11:04:00;;;;;;;16.87;10.72;;;;;;;0.10;97.08;99220.84;1824874;76;22791;-64
2021/01/06 11:06:39;;;;;;;18.73;12.95;;;;;;;0.00;96.89;99219.27;1807718;77;20982;-64
2021/01/06 11:09:27;;;;;;;22.25;15.75;;;;;;;-0.04;97.13;99214.59;1811490;77;21176;-64
2021/01/06 11:12:25;;;;;;;22.90;15.55;;;;;;;-0.01;97.30;99214.98;1808405;77;21513;-64
2021/01/06 11:15:55;;;;;;;25.60;14.83;;;;;;;0.04;97.31;99207.24;1836364;76;22190;-63
2021/01/06 11:18:37;;;;;;;19.57;13.53;;;;;;;-0.06;97.07;99204.77;1775537;78;21051;-63
2021/01/06 11:21:18;;;;;;;21.25;15.45;;;;;;;-0.05;97.23;99195.38;1810504;78;22552;-63
2021/01/06 11:24:00;;;;;;;22.67;13.35;;;;;;;-0.06;97.19;99197.07;1804191;77;20992;-63
2021/01/06 11:26:45;;;;;;;22.90;16.27;;;;;;;-0.04;97.10;99189.36;1805945;78;21044;-63
2021/01/06 11:29:20;;;;;;;25.70;14.90;;;;;;;-0.06;97.21;99198.80;1809539;77;21111;-63
2021/01/06 11:32:23;;;;;;;21.33;14.90;;;;;;;-0.08;97.07;99196.70;1810644;77;21712;-63
2021/01/06 11:35:11;;;;;;;26.80;17.70;;;;;;;-0.11;97.16;99192.86;1801847;78;22239;-63
2021/01/06 11:37:57;;;;;;;22.20;16.07;;;;;;;-0.07;97.28;99187.69;1838478;75;22315;-63
2021/01/06 11:40:34;;;;;;;20.70;13.22;;;;;;;-0.12;97.13;99191.18;1783261;79;21016;-63
2021/01/06 11:43:34;;;;;;;25.92;17.65;;;;;;;-0.17;97.03;99192.95;1779973;78;21117;-63
2021/01/06 11:46:40;;;;;;;29.23;17.67;;;;;;;-0.21;97.20;99183.60;1783676;79;21558;-63
2021/01/06 11:49:24;;;;;;;27.67;17.30;;;;;;;-0.18;97.25;99181.84;1775002;79;20985;-62
2021/01/06 11:52:35;;;;;;;25.90;16.27;;;;;;;-0.19;97.27;99184.44;1785223;79;21030;-62
2021/01/06 11:55:29;;;;;;;32.65;20.00;;;;;;;-0.23;97.17;99175.47;1778919;79;21017;-64
2021/01/06 11:58:20;;;;;;;29.45;17.10;;;;;;;-0.26;97.30;99171.66;1782404;79;21889;-62
2021/01/06 12:01:25;;;;;;;33.53;19.48;;;;;;;-0.25;97.44;99170.81;1700979;83;21760;-63
2021/01/06 12:04:13;;;;;;;36.35;18.80;;;;;;;-0.21;97.45;99170.77;1702286;83;21072;-61
2021/01/06 12:07:24;;;;;;;35.98;19.92;;;;;;;-0.25;97.34;99164.41;1717491;81;21613;-61
2021/01/06 12:10:27;;;;;;;27.42;17.80;;;;;;;-0.26;97.29;99166.53;1708109;82;21246;-61
2021/01/06 12:13:21;;;;;;;28.12;15.83;;;;;;;-0.27;97.37;99173.83;1706171;83;21262;-61
2021/01/06 12:16:12;;;;;;;24.52;15.30;;;;;;;-0.25;97.42;99155.42;1714415;83;21071;-61
2021/01/06 12:19:14;;;;;;;28.95;15.25;;;;;;;-0.15;97.47;99155.30;1828827;76;22937;-61
2021/01/06 12:21:52;;;;;;;27.73;16.52;;;;;;;-0.16;97.40;99157.45;1694241;83;21646;-61
2021/01/06 12:24:33;;;;;;;40.52;23.30;;;;;;;-0.16;97.35;99143.34;1696465;83;22195;-61
2021/01/06 12:27:31;;;;;;;39.63;21.75;;;;;;;-0.13;97.36;99147.15;1698015;83;21128;-61
2021/01/06 12:30:10;;;;;;;31.33;16.97;;;;;;;-0.12;97.36;99141.14;1691407;83;21123;-61